Time;durP1;ratioP1;P1;durP2;ratioP2;P2;SDS_P1;SDS_P2;PMS_P1;PMS_P2;Temp;Humidity;BMP_temperature;BMP_pressure;BME280_temperature;BME280_humidity;BME280_pressure;Samples;Min_cycle;Max_cycle;Signal;HPM_P1;HPM_P2
2023/08/14 00:00:30;;;;;;;10.05;2.33;;;15.10;99.90;;;;;;5092515;28;20024;-83
2023/08/14 00:02:56;;;;;;;4.88;2.22;;;15.10;99.90;;;;;;5092947;28;20028;-84
2023/08/14 00:05:22;;;;;;;10.63;2.17;;;15.10;99.90;;;;;;5092979;28;20023;-84
2023/08/14 00:07:47;;;;;;;12.65;2.90;;;15.10;99.90;;;;;;5092903;28;20023;-83
2023/08/14 00:10:13;;;;;;;7.43;2.15;;;15.20;99.90;;;;;;5101386;22;20044;-85
2023/08/14 00:12:38;;;;;;;9.70;2.63;;;15.20;99.90;;;;;;5067028;28;20027;-85
2023/08/14 00:15:04;;;;;;;8.32;2.45;;;15.20;99.90;;;;;;5076358;28;20040;-86
2023/08/14 00:17:30;;;;;;;6.35;2.20;;;15.10;99.90;;;;;;5073224;28;20058;-86
2023/08/14 00:19:56;;;;;;;7.95;2.00;;;15.10;99.90;;;;;;5069577;28;20090;-86
2023/08/14 00:22:21;;;;;;;11.48;2.35;;;15.10;99.90;;;;;;5037351;28;20020;-86
2023/08/14 00:24:47;;;;;;;9.82;2.40;;;15.00;99.90;;;;;;5032292;28;20049;-85
2023/08/14 00:27:13;;;;;;;7.10;2.10;;;15.00;99.90;;;;;;5057154;28;20036;-86
2023/08/14 00:29:38;;;;;;;8.20;2.13;;;15.00;99.90;;;;;;5062560;28;20009;-86
2023/08/14 00:32:04;;;;;;;12.50;2.20;;;15.00;99.90;;;;;;5038327;28;20032;-86
2023/08/14 00:34:30;;;;;;;6.38;2.15;;;14.90;99.90;;;;;;5059179;28;20067;-86
2023/08/14 00:36:55;;;;;;;4.90;1.80;;;14.90;99.90;;;;;;5052531;28;20029;-86
2023/08/14 00:39:21;;;;;;;8.85;2.22;;;14.80;99.90;;;;;;5053058;28;20496;-86
2023/08/14 00:41:47;;;;;;;9.40;2.10;;;14.80;99.90;;;;;;5058873;28;20074;-86
2023/08/14 00:44:12;;;;;;;9.98;3.40;;;14.80;99.90;;;;;;5054614;28;20021;-86
2023/08/14 00:46:38;;;;;;;8.02;1.98;;;14.70;99.90;;;;;;5060009;28;20021;-86
2023/08/14 00:49:04;;;;;;;10.07;2.40;;;14.70;99.90;;;;;;5053346;28;21028;-85
2023/08/14 00:51:30;;;;;;;7.32;2.38;;;14.60;99.90;;;;;;5053484;28;20029;-86
2023/08/14 00:53:56;;;;;;;8.88;2.10;;;14.60;99.90;;;;;;5053135;28;20359;-86
2023/08/14 00:56:23;;;;;;;6.93;2.15;;;14.60;99.90;;;;;;5035105;28;20082;-87
2023/08/14 00:58:49;;;;;;;7.60;2.00;;;14.60;99.90;;;;;;5063750;28;20048;-86
2023/08/14 01:01:15;;;;;;;5.07;1.80;;;14.50;99.90;;;;;;5037887;28;20417;-86
2023/08/14 01:03:42;;;;;;;3.97;2.05;;;14.50;99.90;;;;;;5053144;28;20029;-86
2023/08/14 01:06:07;;;;;;;6.93;1.90;;;14.50;99.90;;;;;;5059909;28;20013;-87
2023/08/14 01:08:34;;;;;;;9.77;2.53;;;14.50;99.90;;;;;;5052619;28;20500;-85
2023/08/14 01:11:06;;;;;;;4.25;1.70;;;14.40;99.90;;;;;;5085749;22;20131;-84
2023/08/14 01:13:49;;;;;;;8.75;2.42;;;14.50;99.90;;;;;;5047152;28;20029;-84
2023/08/14 01:16:30;;;;;;;4.43;1.83;;;14.50;99.90;;;;;;5064538;28;20055;-83
2023/08/14 01:18:58;;;;;;;5.18;2.15;;;14.50;99.90;;;;;;5046683;28;20020;-83
2023/08/14 01:21:47;;;;;;;8.65;2.17;;;14.50;99.90;;;;;;5051854;28;20031;-83
2023/08/14 01:24:23;;;;;;;6.43;1.98;;;14.50;99.90;;;;;;5050735;28;20480;-83
2023/08/14 01:26:50;;;;;;;8.48;2.15;;;14.50;99.90;;;;;;5051866;28;20033;-83
2023/08/14 01:29:16;;;;;;;2.42;1.70;;;14.40;99.90;;;;;;5051204;28;20017;-84
2023/08/14 01:31:41;;;;;;;9.65;3.10;;;14.50;99.90;;;;;;5051144;28;20102;-83
2023/08/14 01:34:07;;;;;;;5.30;2.00;;;14.50;99.90;;;;;;5049888;28;20672;-84
2023/08/14 01:36:57;;;;;;;5.25;2.03;;;14.50;99.90;;;;;;5051403;28;20040;-83
2023/08/14 01:39:27;;;;;;;5.35;2.10;;;14.50;99.90;;;;;;5050794;28;20243;-84
2023/08/14 01:42:38;;;;;;;6.85;2.30;;;14.50;99.90;;;;;;5019053;28;20541;-84
2023/08/14 01:45:15;;;;;;;4.63;2.50;;;14.40;99.90;;;;;;5047945;28;20108;-84
2023/08/14 01:47:42;;;;;;;4.20;1.80;;;14.50;99.90;;;;;;5050751;28;20029;-83
2023/08/14 01:50:08;;;;;;;3.40;1.73;;;14.60;99.90;;;;;;5050923;28;20024;-83
2023/08/14 01:52:34;;;;;;;4.53;2.03;;;14.60;99.90;;;;;;5050373;28;20462;-83
2023/08/14 01:55:00;;;;;;;3.35;1.67;;;14.50;99.90;;;;;;5050670;28;20508;-84
2023/08/14 01:57:27;;;;;;;10.95;2.20;;;14.60;99.90;;;;;;5049766;28;20057;-83
2023/08/14 01:59:52;;;;;;;5.75;2.05;;;14.60;99.90;;;;;;5051379;28;20524;-83
2023/08/14 02:02:18;;;;;;;6.03;1.92;;;14.60;99.90;;;;;;5050873;28;20029;-84
2023/08/14 02:04:44;;;;;;;4.68;1.90;;;14.60;99.90;;;;;;5049308;28;20124;-83
2023/08/14 02:07:09;;;;;;;4.18;2.00;;;14.60;99.90;;;;;;5049312;28;20569;-84
2023/08/14 02:09:36;;;;;;;4.32;2.28;;;14.60;99.90;;;;;;5035902;22;20034;-86
2023/08/14 02:12:01;;;;;;;4.70;2.10;;;14.60;99.90;;;;;;5011562;28;20060;-85
2023/08/14 02:14:27;;;;;;;8.30;2.28;;;14.50;99.90;;;;;;5011536;28;20471;-86
2023/08/14 02:16:53;;;;;;;8.55;2.28;;;14.60;99.90;;;;;;4998003;28;20501;-86
2023/08/14 02:19:19;;;;;;;6.85;2.28;;;14.50;99.90;;;;;;5014237;28;20529;-85
2023/08/14 02:21:44;;;;;;;10.50;2.20;;;14.60;99.90;;;;;;5023228;28;20489;-86
2023/08/14 02:24:10;;;;;;;2.92;1.92;;;14.60;99.90;;;;;;5018383;28;20075;-85
2023/08/14 02:26:36;;;;;;;9.20;2.45;;;14.60;99.90;;;;;;5010785;28;20038;-86
2023/08/14 02:29:03;;;;;;;5.57;2.05;;;14.60;99.90;;;;;;5018304;28;20022;-86
2023/08/14 02:31:28;;;;;;;5.30;1.70;;;14.60;99.90;;;;;;5016675;28;20025;-87
2023/08/14 02:33:59;;;;;;;9.68;2.47;;;14.70;99.90;;;;;;5013433;28;20026;-87
2023/08/14 02:36:25;;;;;;;4.00;2.00;;;14.70;99.90;;;;;;5027145;28;20045;-86
2023/08/14 02:38:53;;;;;;;9.55;2.17;;;14.80;99.90;;;;;;5023363;28;20025;-85
2023/08/14 02:41:19;;;;;;;5.70;1.80;;;14.80;99.90;;;;;;5020040;28;20022;-85
2023/08/14 02:43:45;;;;;;;2.72;1.90;;;14.90;99.90;;;;;;5019885;28;20380;-86
2023/08/14 02:46:10;;;;;;;3.05;2.25;;;14.90;99.90;;;;;;5016672;28;20046;-86
2023/08/14 02:48:36;;;;;;;9.15;2.83;;;14.90;99.90;;;;;;5012497;28;20021;-87
2023/08/14 02:51:02;;;;;;;7.45;2.45;;;15.00;99.90;;;;;;5014075;28;20092;-86
2023/08/14 02:53:28;;;;;;;3.28;1.55;;;15.00;99.90;;;;;;5011871;28;20065;-86
2023/08/14 02:55:54;;;;;;;3.05;1.80;;;15.10;99.90;;;;;;5011227;28;20061;-86
2023/08/14 02:58:20;;;;;;;4.50;2.22;;;15.10;99.90;;;;;;5009523;28;20030;-87
2023/08/14 03:00:46;;;;;;;4.47;1.88;;;15.10;99.90;;;;;;5009240;28;20026;-85
2023/08/14 03:03:12;;;;;;;4.57;2.08;;;15.10;99.90;;;;;;5008954;28;20461;-86
2023/08/14 03:05:38;;;;;;;11.25;2.92;;;15.20;99.90;;;;;;5011387;28;20537;-87
2023/08/14 03:08:04;;;;;;;7.55;2.80;;;15.20;99.90;;;;;;5018396;28;20110;-88
2023/08/14 03:10:30;;;;;;;4.68;2.50;;;15.30;99.90;;;;;;5052316;22;20493;-83
2023/08/14 03:12:56;;;;;;;11.10;3.10;;;15.40;99.90;;;;;;5006086;28;20572;-84
2023/08/14 03:15:23;;;;;;;12.25;3.08;;;15.50;99.90;;;;;;5022551;28;20025;-83
2023/08/14 03:17:48;;;;;;;7.80;3.15;;;15.60;99.90;;;;;;5019277;28;20018;-84
2023/08/14 03:20:14;;;;;;;8.52;3.15;;;15.70;99.90;;;;;;5032357;28;20032;-84
2023/08/14 03:22:40;;;;;;;9.93;3.50;;;15.80;99.90;;;;;;5026983;28;20030;-85
2023/08/14 03:25:06;;;;;;;7.53;3.17;;;15.70;99.90;;;;;;5033965;28;20025;-84
2023/08/14 03:27:32;;;;;;;8.23;3.25;;;15.70;99.90;;;;;;5033750;28;20040;-84
2023/08/14 03:29:57;;;;;;;5.93;3.28;;;15.70;99.90;;;;;;5033753;28;20031;-84
2023/08/14 03:32:23;;;;;;;12.68;3.05;;;15.70;99.90;;;;;;5028536;28;20108;-85
2023/08/14 03:34:49;;;;;;;11.98;3.70;;;15.70;99.90;;;;;;5028697;28;20054;-84
2023/08/14 03:37:14;;;;;;;7.03;3.60;;;15.70;99.90;;;;;;5020906;28;20022;-85
2023/08/14 03:39:40;;;;;;;8.00;3.55;;;15.80;99.90;;;;;;5027104;28;20065;-85
2023/08/14 03:42:06;;;;;;;10.93;3.58;;;15.70;99.90;;;;;;5014178;28;20112;-84
2023/08/14 03:44:32;;;;;;;5.57;2.92;;;15.70;99.90;;;;;;5033182;28;20390;-83
2023/08/14 03:46:57;;;;;;;6.45;2.50;;;15.70;99.90;;;;;;5026194;28;20041;-84
2023/08/14 03:49:23;;;;;;;7.05;3.28;;;15.70;99.90;;;;;;5032852;28;20064;-83
2023/08/14 03:51:49;;;;;;;14.90;3.60;;;15.60;99.90;;;;;;5033374;28;20484;-84
2023/08/14 03:54:14;;;;;;;7.57;3.20;;;15.60;99.90;;;;;;5033710;28;20022;-85
2023/08/14 03:56:40;;;;;;;8.02;3.22;;;15.60;99.90;;;;;;5025811;28;20638;-84
2023/08/14 03:59:05;;;;;;;10.45;3.03;;;15.60;99.90;;;;;;5032461;28;20021;-84
2023/08/14 04:01:31;;;;;;;14.23;2.92;;;15.60;99.90;;;;;;5016205;28;20038;-83
2023/08/14 04:03:57;;;;;;;9.43;3.15;;;15.60;99.90;;;;;;5025954;28;20394;-85
2023/08/14 04:06:23;;;;;;;10.63;3.25;;;15.60;99.90;;;;;;5032371;28;20367;-85
2023/08/14 04:08:49;;;;;;;4.43;2.65;;;15.60;99.90;;;;;;5009079;28;20381;-84
2023/08/14 04:11:14;;;;;;;3.80;2.60;;;15.60;99.90;;;;;;5058072;22;20571;-87
2023/08/14 04:13:40;;;;;;;14.70;3.63;;;15.60;99.90;;;;;;5037282;28;20056;-86
2023/08/14 04:16:05;;;;;;;7.32;2.58;;;15.70;99.90;;;;;;5043884;28;20056;-86
2023/08/14 04:18:31;;;;;;;9.13;3.10;;;15.70;99.90;;;;;;5054634;28;20021;-86
2023/08/14 04:20:58;;;;;;;5.60;3.03;;;15.70;99.90;;;;;;5061873;28;20032;-86
2023/08/14 04:23:25;;;;;;;7.20;3.08;;;15.60;99.90;;;;;;5054766;28;20009;-86
2023/08/14 04:25:51;;;;;;;6.32;2.63;;;15.60;99.90;;;;;;5043319;28;20027;-86
2023/08/14 04:28:17;;;;;;;3.63;2.33;;;15.60;99.90;;;;;;5043624;28;20055;-85
2023/08/14 04:30:43;;;;;;;6.68;2.58;;;15.60;99.90;;;;;;5041198;28;20021;-85
2023/08/14 04:33:08;;;;;;;4.95;2.63;;;15.50;99.90;;;;;;5045145;28;20025;-86
2023/08/14 04:35:35;;;;;;;11.63;3.17;;;15.40;99.90;;;;;;5061419;28;20051;-85
2023/08/14 04:38:01;;;;;;;7.30;2.92;;;15.40;99.90;;;;;;5036589;28;20104;-85
2023/08/14 04:40:26;;;;;;;6.20;2.85;;;15.30;99.90;;;;;;5063479;28;20163;-86
2023/08/14 04:42:52;;;;;;;7.53;2.55;;;15.30;99.90;;;;;;5047747;28;20445;-85
2023/08/14 04:45:18;;;;;;;7.93;3.15;;;15.30;99.90;;;;;;5060954;28;20486;-87
2023/08/14 04:47:43;;;;;;;5.20;2.78;;;15.30;99.90;;;;;;5045416;28;20477;-87
2023/08/14 04:50:09;;;;;;;9.93;3.28;;;15.40;99.90;;;;;;5040661;28;20013;-86
2023/08/14 04:52:34;;;;;;;10.25;3.40;;;15.30;99.90;;;;;;5066092;28;20087;-85
2023/08/14 04:55:00;;;;;;;4.10;2.70;;;15.40;99.90;;;;;;5058548;28;20036;-86
2023/08/14 04:57:26;;;;;;;11.50;3.08;;;15.40;99.90;;;;;;5040759;28;20029;-85
2023/08/14 04:59:51;;;;;;;9.50;2.85;;;15.30;99.90;;;;;;5065432;28;20154;-86
2023/08/14 05:02:17;;;;;;;10.00;2.95;;;15.30;99.90;;;;;;5062118;28;21439;-86
2023/08/14 05:04:43;;;;;;;9.20;3.42;;;15.30;99.90;;;;;;5060811;28;20484;-85
2023/08/14 05:07:08;;;;;;;9.10;3.30;;;15.30;99.90;;;;;;5041557;28;20020;-85
2023/08/14 05:09:34;;;;;;;5.70;3.13;;;15.30;99.90;;;;;;5068313;22;20012;-83
2023/08/14 05:12:00;;;;;;;9.82;3.15;;;15.30;99.90;;;;;;5060011;28;20139;-84
2023/08/14 05:14:26;;;;;;;8.45;2.97;;;15.30;99.90;;;;;;5072398;28;20021;-84
2023/08/14 05:16:52;;;;;;;8.10;2.95;;;15.40;99.90;;;;;;5056065;28;20565;-83
2023/08/14 05:19:18;;;;;;;5.05;2.90;;;15.40;99.90;;;;;;5076379;28;20027;-83
2023/08/14 05:21:45;;;;;;;8.30;2.90;;;15.40;99.90;;;;;;5072200;28;20082;-83
2023/08/14 05:24:13;;;;;;;7.63;2.80;;;15.50;99.90;;;;;;5054321;28;20013;-84
2023/08/14 05:26:39;;;;;;;5.93;2.72;;;15.50;99.90;;;;;;5072260;28;20031;-84
2023/08/14 05:29:05;;;;;;;6.00;3.20;;;15.40;99.90;;;;;;5077898;28;20013;-83
2023/08/14 05:31:30;;;;;;;7.03;3.17;;;15.50;99.90;;;;;;5057907;28;20384;-84
2023/08/14 05:33:56;;;;;;;7.70;3.05;;;15.50;99.90;;;;;;5057313;28;20025;-83
2023/08/14 05:36:22;;;;;;;6.82;3.28;;;15.60;99.90;;;;;;5071372;28;20029;-83
2023/08/14 05:38:47;;;;;;;9.00;3.42;;;15.70;99.90;;;;;;5071834;28;20028;-83
2023/08/14 05:41:13;;;;;;;8.02;3.25;;;15.70;99.90;;;;;;5071192;28;20031;-83
2023/08/14 05:43:38;;;;;;;8.38;3.38;;;15.80;99.90;;;;;;5053910;28;20488;-83
2023/08/14 05:46:04;;;;;;;9.40;3.38;;;15.80;99.90;;;;;;5071568;28;20020;-84
2023/08/14 05:48:30;;;;;;;8.82;3.65;;;15.90;99.90;;;;;;5071479;28;20039;-84
2023/08/14 05:50:55;;;;;;;8.80;3.33;;;16.00;99.90;;;;;;5071799;28;20023;-84
2023/08/14 05:53:22;;;;;;;8.63;3.42;;;16.10;99.90;;;;;;5053371;28;20099;-84
2023/08/14 05:55:47;;;;;;;5.55;3.47;;;16.20;99.90;;;;;;5078672;28;20501;-84
2023/08/14 05:58:13;;;;;;;11.90;3.55;;;16.30;99.90;;;;;;5066472;28;20504;-84
2023/08/14 06:00:39;;;;;;;9.40;3.70;;;16.40;99.90;;;;;;5051687;28;20093;-84
2023/08/14 06:03:05;;;;;;;12.73;3.72;;;16.50;99.90;;;;;;5067961;28;20370;-83
2023/08/14 06:05:32;;;;;;;14.88;4.18;;;16.60;99.90;;;;;;5068013;28;20020;-83
2023/08/14 06:07:58;;;;;;;14.07;4.15;;;16.60;99.90;;;;;;5050081;28;20017;-83
2023/08/14 06:10:24;;;;;;;11.27;3.67;;;16.80;99.90;;;;;;5072515;22;20079;-85
2023/08/14 06:12:50;;;;;;;8.20;3.50;;;16.90;99.90;;;;;;5011036;28;20025;-84
2023/08/14 06:15:18;;;;;;;12.63;3.35;;;17.00;99.90;;;;;;5018723;28;20024;-85
2023/08/14 06:17:44;;;;;;;12.38;3.60;;;17.00;99.90;;;;;;5009800;28;20040;-86
2023/08/14 06:20:10;;;;;;;10.40;3.60;;;17.10;99.90;;;;;;5019824;28;20023;-86
2023/08/14 06:22:40;;;;;;;6.38;3.00;;;17.10;99.90;;;;;;5031895;28;20025;-85
2023/08/14 06:25:07;;;;;;;10.77;3.60;;;17.10;99.90;;;;;;5031012;28;20052;-85
2023/08/14 06:27:34;;;;;;;10.02;3.00;;;17.10;99.90;;;;;;5031658;28;20028;-85
2023/08/14 06:29:59;;;;;;;8.13;2.85;;;17.10;99.90;;;;;;5025135;28;20072;-86
2023/08/14 06:32:25;;;;;;;7.90;2.80;;;17.10;99.90;;;;;;5020646;28;20494;-84
2023/08/14 06:34:51;;;;;;;13.90;2.95;;;17.10;99.90;;;;;;5031616;28;20087;-85
2023/08/14 06:37:17;;;;;;;5.35;2.60;;;17.10;99.90;;;;;;5007083;28;20030;-84
2023/08/14 06:39:42;;;;;;;6.85;3.17;;;17.10;99.90;;;;;;5030431;28;20540;-84
2023/08/14 06:42:08;;;;;;;9.90;3.17;;;17.20;99.90;;;;;;5030319;28;20394;-84
2023/08/14 06:44:34;;;;;;;6.60;2.63;;;17.30;99.90;;;;;;5014168;28;20022;-84
2023/08/14 06:47:00;;;;;;;13.40;2.90;;;17.40;99.90;;;;;;5030991;28;20093;-83
2023/08/14 06:49:27;;;;;;;7.13;2.67;;;17.50;99.90;;;;;;5013626;28;20037;-84
2023/08/14 06:51:53;;;;;;;8.77;2.95;;;17.60;99.90;;;;;;5015530;28;20017;-84
2023/08/14 06:54:19;;;;;;;8.18;2.60;;;17.80;99.90;;;;;;5017466;28;20682;-83
2023/08/14 06:56:44;;;;;;;7.40;2.60;;;17.90;99.90;;;;;;5034805;28;20052;-84
2023/08/14 06:59:10;;;;;;;8.27;3.22;;;18.20;99.90;;;;;;5011269;28;20755;-85
2023/08/14 07:01:36;;;;;;;11.38;3.17;;;18.20;99.90;;;;;;5016815;28;20033;-84
2023/08/14 07:04:02;;;;;;;10.30;2.72;;;18.40;99.90;;;;;;5017848;28;20021;-85
2023/08/14 07:06:27;;;;;;;6.28;2.45;;;18.40;99.90;;;;;;5028224;28;20036;-84
2023/08/14 07:08:53;;;;;;;13.65;2.63;;;18.40;99.90;;;;;;5017321;28;20394;-81
2023/08/14 07:11:19;;;;;;;6.00;2.90;;;18.40;99.90;;;;;;5032349;28;20545;-83
2023/08/14 07:13:44;;;;;;;12.75;3.05;;;18.30;99.90;;;;;;5025870;28;20096;-82
2023/08/14 07:16:10;;;;;;;6.97;2.28;;;18.30;99.90;;;;;;5016593;28;20041;-82
2023/08/14 07:18:36;;;;;;;12.05;2.72;;;18.40;99.90;;;;;;5016587;28;20075;-83
2023/08/14 07:21:02;;;;;;;10.38;2.72;;;18.50;99.90;;;;;;5032964;28;20099;-83
2023/08/14 07:23:27;;;;;;;12.68;2.70;;;18.60;99.90;;;;;;5015189;28;20032;-83
2023/08/14 07:25:57;;;;;;;9.93;2.72;;;18.80;99.90;;;;;;5033293;28;20036;-83
2023/08/14 07:28:23;;;;;;;13.38;2.60;;;19.00;99.90;;;;;;5028009;28;20014;-82
2023/08/14 07:30:49;;;;;;;13.15;2.58;;;19.10;99.90;;;;;;5033445;28;20018;-82
2023/08/14 07:33:15;;;;;;;12.55;2.83;;;19.20;99.90;;;;;;5016086;28;20047;-82
2023/08/14 07:35:41;;;;;;;7.13;2.40;;;19.20;99.90;;;;;;5033483;28;20018;-83
